sensor_id;sensor_type;location;lat;lon;timestamp;pressure;altitude;pressure_sealevel;temperature;humidity
65557;BME280;52200;53.490;14.376;2023-08-24T00:00:38;101685.59;;;16.97;97.93
65557;BME280;52200;53.490;14.376;2023-08-24T00:03:04;101677.59;;;17.05;97.61
65557;BME280;52200;53.490;14.376;2023-08-24T00:05:32;101680.81;;;17.10;97.71
65557;BME280;52200;53.490;14.376;2023-08-24T00:07:57;101674.78;;;17.11;97.43
65557;BME280;52200;53.490;14.376;2023-08-24T00:10:23;101673.47;;;17.23;97.13
65557;BME280;52200;53.490;14.376;2023-08-24T00:12:48;101675.16;;;17.24;96.97
65557;BME280;52200;53.490;14.376;2023-08-24T00:15:13;101675.47;;;17.37;96.68
65557;BME280;52200;53.490;14.376;2023-08-24T00:17:39;101673.88;;;17.34;96.97
65557;BME280;52200;53.490;14.376;2023-08-24T00:20:06;101669.38;;;17.39;96.56
65557;BME280;52200;53.490;14.376;2023-08-24T00:22:36;101666.34;;;17.07;98.09
65557;BME280;52200;53.490;14.376;2023-08-24T00:25:01;101664.72;;;16.59;100.00
65557;BME280;52200;53.490;14.376;2023-08-24T00:27:26;101659.03;;;16.74;100.00
65557;BME280;52200;53.490;14.376;2023-08-24T00:29:52;101661.13;;;17.11;100.00
65557;BME280;52200;53.490;14.376;2023-08-24T00:32:17;101659.91;;;17.19;100.00
65557;BME280;52200;53.490;14.376;2023-08-24T00:34:43;101655.72;;;17.39;99.01
65557;BME280;52200;53.490;14.376;2023-08-24T00:37:08;101661.44;;;17.46;98.56
65557;BME280;52200;53.490;14.376;2023-08-24T00:39:34;101653.84;;;17.43;98.55
65557;BME280;52200;53.490;14.376;2023-08-24T00:41:59;101658.94;;;17.44;99.00
65557;BME280;52200;53.490;14.376;2023-08-24T00:44:25;101649.88;;;17.13;100.00
65557;BME280;52200;53.490;14.376;2023-08-24T00:46:50;101648.38;;;16.62;100.00
65557;BME280;52200;53.490;14.376;2023-08-24T00:49:17;101651.75;;;16.64;100.00
65557;BME280;52200;53.490;14.376;2023-08-24T00:51:42;101647.34;;;16.89;100.00
65557;BME280;52200;53.490;14.376;2023-08-24T00:54:07;101650.94;;;17.07;100.00
65557;BME280;52200;53.490;14.376;2023-08-24T00:56:33;101649.75;;;17.16;100.00
65557;BME280;52200;53.490;14.376;2023-08-24T00:58:58;101641.16;;;16.95;100.00
65557;BME280;52200;53.490;14.376;2023-08-24T01:01:24;101651.25;;;17.22;100.00
65557;BME280;52200;53.490;14.376;2023-08-24T01:03:50;101654.16;;;17.35;100.00
65557;BME280;52200;53.490;14.376;2023-08-24T01:06:15;101651.72;;;17.32;100.00
65557;BME280;52200;53.490;14.376;2023-08-24T01:08:41;101659.31;;;17.13;100.00
65557;BME280;52200;53.490;14.376;2023-08-24T01:16:27;101666.81;;;17.39;100.00
65557;BME280;52200;53.490;14.376;2023-08-24T01:18:56;101657.25;;;17.43;100.00
65557;BME280;52200;53.490;14.376;2023-08-24T01:21:22;101661.78;;;17.59;100.00
65557;BME280;52200;53.490;14.376;2023-08-24T01:23:57;101658.47;;;17.76;100.00
65557;BME280;52200;53.490;14.376;2023-08-24T01:26:28;101654.91;;;17.80;100.00
65557;BME280;52200;53.490;14.376;2023-08-24T01:28:54;101658.09;;;17.44;100.00
65557;BME280;52200;53.490;14.376;2023-08-24T01:31:20;101649.16;;;17.10;100.00
65557;BME280;52200;53.490;14.376;2023-08-24T01:33:46;101645.94;;;17.27;100.00
65557;BME280;52200;53.490;14.376;2023-08-24T01:36:13;101647.13;;;17.61;100.00
65557;BME280;52200;53.490;14.376;2023-08-24T01:38:39;101639.81;;;17.51;100.00
65557;BME280;52200;53.490;14.376;2023-08-24T01:41:08;101650.03;;;17.73;100.00
65557;BME280;52200;53.490;14.376;2023-08-24T01:43:36;101647.94;;;17.82;100.00
65557;BME280;52200;53.490;14.376;2023-08-24T01:46:04;101644.56;;;17.81;100.00
65557;BME280;52200;53.490;14.376;2023-08-24T01:48:31;101640.97;;;17.65;100.00
65557;BME280;52200;53.490;14.376;2023-08-24T01:50:57;101644.34;;;17.65;100.00
65557;BME280;52200;53.490;14.376;2023-08-24T01:53:24;101649.56;;;17.64;100.00
65557;BME280;52200;53.490;14.376;2023-08-24T01:55:50;101646.16;;;17.84;100.00
65557;BME280;52200;53.490;14.376;2023-08-24T01:58:16;101637.72;;;17.60;100.00
65557;BME280;52200;53.490;14.376;2023-08-24T02:00:41;101643.06;;;17.76;100.00
65557;BME280;52200;53.490;14.376;2023-08-24T02:03:07;101642.22;;;17.54;100.00
65557;BME280;52200;53.490;14.376;2023-08-24T02:05:32;101637.16;;;17.53;100.00
65557;BME280;52200;53.490;14.376;2023-08-24T02:07:57;101644.22;;;17.48;100.00
65557;BME280;52200;53.490;14.376;2023-08-24T02:10:25;101632.78;;;17.34;100.00
65557;BME280;52200;53.490;14.376;2023-08-24T02:12:51;101634.06;;;17.45;100.00
65557;BME280;52200;53.490;14.376;2023-08-24T02:15:17;101637.91;;;17.34;100.00
65557;BME280;52200;53.490;14.376;2023-08-24T02:17:43;101640.13;;;17.64;100.00
65557;BME280;52200;53.490;14.376;2023-08-24T02:20:09;101643.22;;;17.72;100.00
65557;BME280;52200;53.490;14.376;2023-08-24T02:22:36;101646.50;;;17.33;100.00
65557;BME280;52200;53.490;14.376;2023-08-24T02:25:02;101643.09;;;17.55;100.00
65557;BME280;52200;53.490;14.376;2023-08-24T02:27:30;101647.38;;;17.54;100.00
65557;BME280;52200;53.490;14.376;2023-08-24T02:29:55;101649.91;;;17.56;100.00
65557;BME280;52200;53.490;14.376;2023-08-24T02:32:21;101648.34;;;17.72;100.00
65557;BME280;52200;53.490;14.376;2023-08-24T02:34:46;101641.28;;;17.78;99.88
65557;BME280;52200;53.490;14.376;2023-08-24T02:37:12;101646.09;;;17.44;100.00
65557;BME280;52200;53.490;14.376;2023-08-24T02:39:37;101648.94;;;17.59;100.00
65557;BME280;52200;53.490;14.376;2023-08-24T02:42:03;101637.22;;;17.51;100.00
65557;BME280;52200;53.490;14.376;2023-08-24T02:44:28;101641.41;;;17.54;100.00
65557;BME280;52200;53.490;14.376;2023-08-24T02:46:54;101643.97;;;17.54;100.00
65557;BME280;52200;53.490;14.376;2023-08-24T02:49:19;101644.94;;;17.51;100.00
65557;BME280;52200;53.490;14.376;2023-08-24T02:51:46;101641.09;;;17.62;100.00
65557;BME280;52200;53.490;14.376;2023-08-24T02:54:11;101649.06;;;17.76;99.12
65557;BME280;52200;53.490;14.376;2023-08-24T02:56:36;101637.34;;;17.69;99.06
65557;BME280;52200;53.490;14.376;2023-08-24T02:59:02;101634.84;;;17.47;99.67
65557;BME280;52200;53.490;14.376;2023-08-24T03:01:27;101622.66;;;17.31;100.00
65557;BME280;52200;53.490;14.376;2023-08-24T03:03:53;101621.03;;;17.49;100.00
65557;BME280;52200;53.490;14.376;2023-08-24T03:06:18;101616.59;;;17.53;100.00
65557;BME280;52200;53.490;14.376;2023-08-24T03:08:44;101622.91;;;17.66;99.96
65557;BME280;52200;53.490;14.376;2023-08-24T03:11:09;101620.06;;;17.72;99.42
65557;BME280;52200;53.490;14.376;2023-08-24T03:13:36;101626.38;;;17.65;99.75
65557;BME280;52200;53.490;14.376;2023-08-24T03:16:04;101629.78;;;17.45;100.00
65557;BME280;52200;53.490;14.376;2023-08-24T03:18:30;101627.34;;;17.63;100.00
65557;BME280;52200;53.490;14.376;2023-08-24T03:20:55;101630.47;;;17.69;99.65
65557;BME280;52200;53.490;14.376;2023-08-24T03:23:21;101638.69;;;17.78;99.24
65557;BME280;52200;53.490;14.376;2023-08-24T03:25:47;101635.44;;;17.74;98.69
65557;BME280;52200;53.490;14.376;2023-08-24T03:28:12;101626.00;;;17.75;98.74
65557;BME280;52200;53.490;14.376;2023-08-24T03:30:39;101633.28;;;17.63;99.17
65557;BME280;52200;53.490;14.376;2023-08-24T03:33:05;101629.63;;;17.48;100.00
65557;BME280;52200;53.490;14.376;2023-08-24T03:35:32;101633.03;;;17.69;99.34
65557;BME280;52200;53.490;14.376;2023-08-24T03:37:58;101625.84;;;17.78;98.54
65557;BME280;52200;53.490;14.376;2023-08-24T03:40:23;101621.50;;;17.80;98.71
65557;BME280;52200;53.490;14.376;2023-08-24T03:42:49;101624.31;;;17.73;98.44
65557;BME280;52200;53.490;14.376;2023-08-24T03:45:14;101627.91;;;17.69;99.12
65557;BME280;52200;53.490;14.376;2023-08-24T03:47:40;101611.34;;;17.56;98.93
65557;BME280;52200;53.490;14.376;2023-08-24T03:50:06;101614.53;;;17.40;100.00
65557;BME280;52200;53.490;14.376;2023-08-24T03:52:31;101617.25;;;17.58;99.89
65557;BME280;52200;53.490;14.376;2023-08-24T03:54:57;101618.84;;;17.61;99.54
65557;BME280;52200;53.490;14.376;2023-08-24T03:57:22;101625.47;;;17.66;99.09
65557;BME280;52200;53.490;14.376;2023-08-24T03:59:48;101628.56;;;17.75;98.66
65557;BME280;52200;53.490;14.376;2023-08-24T04:02:14;101629.19;;;17.80;98.34
65557;BME280;52200;53.490;14.376;2023-08-24T04:04:39;101625.72;;;17.81;98.07
65557;BME280;52200;53.490;14.376;2023-08-24T04:07:05;101626.56;;;17.81;97.83
65557;BME280;52200;53.490;14.376;2023-08-24T04:09:30;101627.63;;;17.76;98.18
65557;BME280;52200;53.490;14.376;2023-08-24T04:11:56;101624.06;;;17.80;98.24
65557;BME280;52200;53.490;14.376;2023-08-24T04:14:21;101621.22;;;17.86;97.88
65557;BME280;52200;53.490;14.376;2023-08-24T04:16:46;101622.13;;;17.85;98.18
65557;BME280;52200;53.490;14.376;2023-08-24T04:19:12;101623.97;;;17.81;98.12
65557;BME280;52200;53.490;14.376;2023-08-24T04:21:38;101616.97;;;17.85;98.07
65557;BME280;52200;53.490;14.376;2023-08-24T04:24:03;101620.72;;;17.78;98.34
65557;BME280;52200;53.490;14.376;2023-08-24T04:26:30;101623.00;;;17.84;98.52
65557;BME280;52200;53.490;14.376;2023-08-24T04:28:56;101617.69;;;17.88;98.07
65557;BME280;52200;53.490;14.376;2023-08-24T04:31:21;101615.94;;;17.89;98.12
65557;BME280;52200;53.490;14.376;2023-08-24T04:33:47;101609.72;;;17.74;98.51
65557;BME280;52200;53.490;14.376;2023-08-24T04:36:12;101609.72;;;17.33;100.00
65557;BME280;52200;53.490;14.376;2023-08-24T04:38:37;101618.03;;;17.60;100.00
65557;BME280;52200;53.490;14.376;2023-08-24T04:41:03;101619.94;;;17.76;99.63
65557;BME280;52200;53.490;14.376;2023-08-24T04:43:33;101616.91;;;17.86;99.28
65557;BME280;52200;53.490;14.376;2023-08-24T04:45:58;101619.13;;;17.96;98.64
65557;BME280;52200;53.490;14.376;2023-08-24T04:48:25;101608.69;;;17.99;98.29
65557;BME280;52200;53.490;14.376;2023-08-24T04:50:51;101612.53;;;17.88;98.48
65557;BME280;52200;53.490;14.376;2023-08-24T04:53:19;101611.25;;;17.99;98.45
65557;BME280;52200;53.490;14.376;2023-08-24T04:55:46;101609.78;;;17.93;98.87
65557;BME280;52200;53.490;14.376;2023-08-24T04:58:12;101612.13;;;17.99;98.78
65557;BME280;52200;53.490;14.376;2023-08-24T05:00:40;101606.34;;;18.13;98.70
65557;BME280;52200;53.490;14.376;2023-08-24T05:03:07;101610.94;;;18.26;97.71
65557;BME280;52200;53.490;14.376;2023-08-24T05:05:34;101618.50;;;18.29;97.77
65557;BME280;52200;53.490;14.376;2023-08-24T05:08:01;101617.22;;;18.39;97.57
65557;BME280;52200;53.490;14.376;2023-08-24T05:10:30;101619.06;;;18.16;98.34
65557;BME280;52200;53.490;14.376;2023-08-24T05:12:56;101623.31;;;18.17;98.71
65557;BME280;52200;53.490;14.376;2023-08-24T05:15:22;101617.34;;;18.17;99.06
65557;BME280;52200;53.490;14.376;2023-08-24T05:17:47;101626.47;;;18.24;98.65
65557;BME280;52200;53.490;14.376;2023-08-24T05:20:13;101620.97;;;18.32;97.92
65557;BME280;52200;53.490;14.376;2023-08-24T05:22:39;101622.47;;;18.36;97.70
65557;BME280;52200;53.490;14.376;2023-08-24T05:25:05;101613.31;;;18.30;98.11
65557;BME280;52200;53.490;14.376;2023-08-24T05:27:31;101620.75;;;17.97;99.52
65557;BME280;52200;53.490;14.376;2023-08-24T05:29:57;101624.44;;;18.31;98.20
65557;BME280;52200;53.490;14.376;2023-08-24T05:32:22;101623.78;;;18.07;98.96
65557;BME280;52200;53.490;14.376;2023-08-24T05:34:48;101627.00;;;18.12;98.92
65557;BME280;52200;53.490;14.376;2023-08-24T05:37:13;101621.09;;;18.29;98.58
65557;BME280;52200;53.490;14.376;2023-08-24T05:39:39;101620.38;;;18.06;100.00
65557;BME280;52200;53.490;14.376;2023-08-24T05:42:05;101628.31;;;18.40;98.66
65557;BME280;52200;53.490;14.376;2023-08-24T05:44:30;101613.59;;;18.24;98.67
65557;BME280;52200;53.490;14.376;2023-08-24T05:46:56;101620.09;;;18.31;99.22
65557;BME280;52200;53.490;14.376;2023-08-24T05:49:21;101623.72;;;18.46;97.65
65557;BME280;52200;53.490;14.376;2023-08-24T05:51:50;101626.56;;;18.21;97.31
65557;BME280;52200;53.490;14.376;2023-08-24T05:54:16;101625.25;;;18.31;97.14
65557;BME280;52200;53.490;14.376;2023-08-24T05:56:46;101621.09;;;18.10;96.49
65557;BME280;52200;53.490;14.376;2023-08-24T05:59:11;101620.09;;;17.92;96.97
65557;BME280;52200;53.490;14.376;2023-08-24T06:01:37;101617.34;;;18.17;95.36
65557;BME280;52200;53.490;14.376;2023-08-24T06:04:09;101621.22;;;18.45;94.50
65557;BME280;52200;53.490;14.376;2023-08-24T06:06:35;101621.19;;;18.83;91.93
65557;BME280;52200;53.490;14.376;2023-08-24T06:09:00;101611.56;;;19.06;89.80
65557;BME280;52200;53.490;14.376;2023-08-24T06:11:26;101621.63;;;19.10;90.28
65557;BME280;52200;53.490;14.376;2023-08-24T06:13:51;101615.69;;;19.27;88.06
65557;BME280;52200;53.490;14.376;2023-08-24T06:16:19;101616.34;;;19.31;88.23
65557;BME280;52200;53.490;14.376;2023-08-24T06:18:44;101616.13;;;19.53;86.60
65557;BME280;52200;53.490;14.376;2023-08-24T06:21:10;101612.84;;;19.67;89.03
65557;BME280;52200;53.490;14.376;2023-08-24T06:23:35;101622.78;;;19.92;86.58
65557;BME280;52200;53.490;14.376;2023-08-24T06:26:01;101619.88;;;20.14;85.75
65557;BME280;52200;53.490;14.376;2023-08-24T06:28:27;101616.16;;;20.20;84.05
65557;BME280;52200;53.490;14.376;2023-08-24T06:30:52;101620.22;;;20.40;82.93
65557;BME280;52200;53.490;14.376;2023-08-24T06:33:19;101619.81;;;20.64;81.90
65557;BME280;52200;53.490;14.376;2023-08-24T06:35:45;101618.97;;;20.64;81.91
65557;BME280;52200;53.490;14.376;2023-08-24T06:38:10;101614.50;;;20.83;81.26
65557;BME280;52200;53.490;14.376;2023-08-24T06:40:36;101613.97;;;21.23;80.00
65557;BME280;52200;53.490;14.376;2023-08-24T06:43:02;101611.78;;;21.46;78.65
65557;BME280;52200;53.490;14.376;2023-08-24T06:45:27;101610.38;;;21.56;78.56
65557;BME280;52200;53.490;14.376;2023-08-24T06:47:53;101611.94;;;21.58;78.32
65557;BME280;52200;53.490;14.376;2023-08-24T06:50:18;101601.09;;;21.52;79.44
65557;BME280;52200;53.490;14.376;2023-08-24T06:52:47;101607.06;;;21.83;77.29
65557;BME280;52200;53.490;14.376;2023-08-24T06:55:12;101605.81;;;22.32;75.79
65557;BME280;52200;53.490;14.376;2023-08-24T06:57:38;101595.44;;;22.32;75.41
65557;BME280;52200;53.490;14.376;2023-08-24T07:00:04;101605.06;;;22.30;73.42
65557;BME280;52200;53.490;14.376;2023-08-24T07:02:35;101597.63;;;22.11;75.21
65557;BME280;52200;53.490;14.376;2023-08-24T07:05:00;101611.38;;;22.11;74.94
65557;BME280;52200;53.490;14.376;2023-08-24T07:07:26;101608.66;;;22.27;75.39
65557;BME280;52200;53.490;14.376;2023-08-24T07:09:51;101599.06;;;22.44;73.42
65557;BME280;52200;53.490;14.376;2023-08-24T07:12:17;101608.72;;;22.82;72.54
65557;BME280;52200;53.490;14.376;2023-08-24T07:14:42;101611.53;;;22.51;74.97
65557;BME280;52200;53.490;14.376;2023-08-24T07:17:07;101617.09;;;22.73;73.46
65557;BME280;52200;53.490;14.376;2023-08-24T07:19:33;101618.66;;;22.75;72.70
65557;BME280;52200;53.490;14.376;2023-08-24T07:21:58;101617.72;;;22.76;73.84
65557;BME280;52200;53.490;14.376;2023-08-24T07:24:24;101620.69;;;22.43;73.62
65557;BME280;52200;53.490;14.376;2023-08-24T07:26:53;101626.72;;;22.14;73.91
65557;BME280;52200;53.490;14.376;2023-08-24T07:29:21;101632.94;;;22.12;74.00
65557;BME280;52200;53.490;14.376;2023-08-24T07:31:47;101632.81;;;22.13;73.86
65557;BME280;52200;53.490;14.376;2023-08-24T07:34:12;101630.50;;;22.23;75.95
65557;BME280;52200;53.490;14.376;2023-08-24T07:36:38;101637.16;;;22.42;74.20
65557;BME280;52200;53.490;14.376;2023-08-24T07:39:03;101638.34;;;22.50;73.96
65557;BME280;52200;53.490;14.376;2023-08-24T07:41:29;101640.84;;;22.79;73.22
65557;BME280;52200;53.490;14.376;2023-08-24T07:43:54;101643.25;;;22.82;71.74
65557;BME280;52200;53.490;14.376;2023-08-24T07:46:20;101641.03;;;23.03;72.04
65557;BME280;52200;53.490;14.376;2023-08-24T07:48:45;101633.13;;;23.05;72.10
65557;BME280;52200;53.490;14.376;2023-08-24T07:51:11;101642.84;;;23.29;70.40
65557;BME280;52200;53.490;14.376;2023-08-24T07:53:36;101640.25;;;23.29;70.19
65557;BME280;52200;53.490;14.376;2023-08-24T07:56:02;101645.44;;;23.29;69.94
65557;BME280;52200;53.490;14.376;2023-08-24T07:58:27;101644.34;;;23.72;68.86
65557;BME280;52200;53.490;14.376;2023-08-24T08:00:53;101644.13;;;23.75;67.38
65557;BME280;52200;53.490;14.376;2023-08-24T08:03:19;101638.81;;;23.63;68.60
65557;BME280;52200;53.490;14.376;2023-08-24T08:05:45;101640.09;;;23.58;69.97
65557;BME280;52200;53.490;14.376;2023-08-24T08:08:12;101640.59;;;23.50;68.51
65557;BME280;52200;53.490;14.376;2023-08-24T08:10:38;101639.34;;;23.43;67.08
65557;BME280;52200;53.490;14.376;2023-08-24T08:13:03;101628.38;;;23.65;68.21
65557;BME280;52200;53.490;14.376;2023-08-24T08:15:29;101634.16;;;23.94;67.68
65557;BME280;52200;53.490;14.376;2023-08-24T08:17:54;101630.84;;;23.54;68.46
65557;BME280;52200;53.490;14.376;2023-08-24T08:20:19;101636.75;;;23.56;67.08
65557;BME280;52200;53.490;14.376;2023-08-24T08:22:45;101635.63;;;23.73;67.44
65557;BME280;52200;53.490;14.376;2023-08-24T08:25:10;101642.91;;;23.67;68.12
65557;BME280;52200;53.490;14.376;2023-08-24T08:27:37;101635.63;;;23.98;66.93
65557;BME280;52200;53.490;14.376;2023-08-24T08:30:03;101639.34;;;23.81;66.52
65557;BME280;52200;53.490;14.376;2023-08-24T08:32:30;101635.09;;;23.80;66.47
65557;BME280;52200;53.490;14.376;2023-08-24T08:34:56;101631.06;;;24.02;65.42
65557;BME280;52200;53.490;14.376;2023-08-24T08:37:25;101623.13;;;24.17;66.66
65557;BME280;52200;53.490;14.376;2023-08-24T08:39:50;101618.16;;;24.38;65.38
65557;BME280;52200;53.490;14.376;2023-08-24T08:42:16;101616.31;;;24.64;68.01
65557;BME280;52200;53.490;14.376;2023-08-24T08:44:45;101615.97;;;24.69;64.77
65557;BME280;52200;53.490;14.376;2023-08-24T08:47:13;101612.97;;;24.62;62.77
65557;BME280;52200;53.490;14.376;2023-08-24T08:49:39;101617.81;;;24.79;61.33
65557;BME280;52200;53.490;14.376;2023-08-24T08:52:05;101619.47;;;24.81;61.22
65557;BME280;52200;53.490;14.376;2023-08-24T08:54:31;101618.28;;;24.85;61.09
65557;BME280;52200;53.490;14.376;2023-08-24T08:56:59;101608.53;;;25.00;61.89
65557;BME280;52200;53.490;14.376;2023-08-24T08:59:27;101608.50;;;24.40;61.81
65557;BME280;52200;53.490;14.376;2023-08-24T09:02:00;101605.91;;;24.64;61.15
65557;BME280;52200;53.490;14.376;2023-08-24T09:04:33;101592.28;;;24.85;61.71
65557;BME280;52200;53.490;14.376;2023-08-24T09:06:59;101594.63;;;24.52;61.76
65557;BME280;52200;53.490;14.376;2023-08-24T09:09:30;101597.59;;;24.72;63.60
65557;BME280;52200;53.490;14.376;2023-08-24T09:11:55;101582.72;;;25.21;61.59
65557;BME280;52200;53.490;14.376;2023-08-24T09:14:22;101583.69;;;25.54;61.07
65557;BME280;52200;53.490;14.376;2023-08-24T09:16:47;101588.63;;;25.23;59.40
65557;BME280;52200;53.490;14.376;2023-08-24T09:19:13;101578.47;;;25.20;62.44
65557;BME280;52200;53.490;14.376;2023-08-24T09:21:39;101565.75;;;25.39;61.12
65557;BME280;52200;53.490;14.376;2023-08-24T09:24:05;101565.53;;;25.18;63.69
65557;BME280;52200;53.490;14.376;2023-08-24T09:26:36;101567.59;;;25.26;62.21
65557;BME280;52200;53.490;14.376;2023-08-24T09:29:20;101558.94;;;25.14;62.30
65557;BME280;52200;53.490;14.376;2023-08-24T09:31:46;101559.06;;;25.24;60.25
65557;BME280;52200;53.490;14.376;2023-08-24T09:34:12;101561.47;;;25.50;60.34
65557;BME280;52200;53.490;14.376;2023-08-24T09:36:39;101562.06;;;25.53;60.52
65557;BME280;52200;53.490;14.376;2023-08-24T09:39:05;101559.19;;;25.68;60.24
65557;BME280;52200;53.490;14.376;2023-08-24T09:41:45;101557.44;;;25.80;60.39
65557;BME280;52200;53.490;14.376;2023-08-24T09:44:11;101553.44;;;25.64;61.26
65557;BME280;52200;53.490;14.376;2023-08-24T09:46:40;101556.47;;;25.24;60.76
65557;BME280;52200;53.490;14.376;2023-08-24T09:49:10;101556.03;;;25.41;60.37
65557;BME280;52200;53.490;14.376;2023-08-24T09:51:38;101546.09;;;25.69;59.69
65557;BME280;52200;53.490;14.376;2023-08-24T09:54:08;101543.91;;;25.97;59.52
65557;BME280;52200;53.490;14.376;2023-08-24T09:56:36;101548.16;;;25.98;60.06
65557;BME280;52200;53.490;14.376;2023-08-24T10:01:33;101539.22;;;26.23;60.42
65557;BME280;52200;53.490;14.376;2023-08-24T10:04:00;101542.81;;;26.22;61.31
65557;BME280;52200;53.490;14.376;2023-08-24T10:06:28;101542.13;;;26.42;58.77
65557;BME280;52200;53.490;14.376;2023-08-24T10:08:58;101546.19;;;26.34;58.77
65557;BME280;52200;53.490;14.376;2023-08-24T10:11:28;101536.53;;;26.25;56.69
65557;BME280;52200;53.490;14.376;2023-08-24T10:14:13;101539.22;;;25.68;61.34
65557;BME280;52200;53.490;14.376;2023-08-24T10:16:41;101527.09;;;26.01;58.03
65557;BME280;52200;53.490;14.376;2023-08-24T10:19:09;101521.72;;;26.47;56.10
65557;BME280;52200;53.490;14.376;2023-08-24T10:21:37;101525.34;;;27.19;56.02
65557;BME280;52200;53.490;14.376;2023-08-24T10:24:02;101509.31;;;27.64;58.29
65557;BME280;52200;53.490;14.376;2023-08-24T10:26:28;101516.53;;;27.51;57.43
65557;BME280;52200;53.490;14.376;2023-08-24T10:28:55;101516.91;;;27.37;56.07
65557;BME280;52200;53.490;14.376;2023-08-24T10:31:23;101514.59;;;27.12;54.51
65557;BME280;52200;53.490;14.376;2023-08-24T10:33:49;101516.03;;;27.26;54.67
65557;BME280;52200;53.490;14.376;2023-08-24T10:36:15;101517.47;;;26.78;54.78
65557;BME280;52200;53.490;14.376;2023-08-24T10:38:43;101514.91;;;26.88;57.22
65557;BME280;52200;53.490;14.376;2023-08-24T10:41:09;101516.63;;;27.09;55.35
65557;BME280;52200;53.490;14.376;2023-08-24T10:43:48;101514.81;;;27.61;57.52
65557;BME280;52200;53.490;14.376;2023-08-24T10:46:15;101505.50;;;27.78;52.94
65557;BME280;52200;53.490;14.376;2023-08-24T10:53:56;101511.41;;;28.00;53.77
65557;BME280;52200;53.490;14.376;2023-08-24T10:56:43;101506.69;;;27.64;53.40
65557;BME280;52200;53.490;14.376;2023-08-24T10:59:20;101508.13;;;27.38;55.47
65557;BME280;52200;53.490;14.376;2023-08-24T11:04:16;101512.53;;;26.10;56.35
65557;BME280;52200;53.490;14.376;2023-08-24T11:06:58;101516.19;;;26.19;57.15
65557;BME280;52200;53.490;14.376;2023-08-24T11:09:24;101514.16;;;25.56;57.66
65557;BME280;52200;53.490;14.376;2023-08-24T11:12:01;101508.91;;;25.79;57.15
65557;BME280;52200;53.490;14.376;2023-08-24T11:14:27;101516.22;;;26.08;56.72
65557;BME280;52200;53.490;14.376;2023-08-24T11:17:18;101505.03;;;26.17;56.41
65557;BME280;52200;53.490;14.376;2023-08-24T11:19:52;101500.78;;;26.48;57.05
65557;BME280;52200;53.490;14.376;2023-08-24T11:22:18;101500.78;;;26.91;57.48
65557;BME280;52200;53.490;14.376;2023-08-24T11:24:46;101484.56;;;27.18;56.38
65557;BME280;52200;53.490;14.376;2023-08-24T11:27:12;101486.84;;;27.42;54.72
65557;BME280;52200;53.490;14.376;2023-08-24T11:29:38;101492.63;;;27.46;54.33
65557;BME280;52200;53.490;14.376;2023-08-24T11:32:03;101486.81;;;27.01;53.83
65557;BME280;52200;53.490;14.376;2023-08-24T11:34:32;101488.94;;;27.48;56.13
65557;BME280;52200;53.490;14.376;2023-08-24T11:36:59;101491.25;;;28.12;55.43
65557;BME280;52200;53.490;14.376;2023-08-24T11:39:24;101485.72;;;28.35;54.75
65557;BME280;52200;53.490;14.376;2023-08-24T11:42:05;101485.72;;;28.44;53.61
65557;BME280;52200;53.490;14.376;2023-08-24T11:44:50;101489.84;;;28.08;55.25
65557;BME280;52200;53.490;14.376;2023-08-24T11:47:19;101488.09;;;28.08;55.90
65557;BME280;52200;53.490;14.376;2023-08-24T11:49:46;101481.28;;;28.45;54.88
65557;BME280;52200;53.490;14.376;2023-08-24T11:52:11;101482.09;;;27.77;54.28
65557;BME280;52200;53.490;14.376;2023-08-24T11:54:41;101473.03;;;27.61;55.61
65557;BME280;52200;53.490;14.376;2023-08-24T11:57:08;101474.00;;;27.60;54.88
65557;BME280;52200;53.490;14.376;2023-08-24T11:59:35;101467.16;;;27.89;55.24
65557;BME280;52200;53.490;14.376;2023-08-24T12:02:01;101462.19;;;27.86;56.31
65557;BME280;52200;53.490;14.376;2023-08-24T12:04:27;101472.22;;;27.90;55.11
65557;BME280;52200;53.490;14.376;2023-08-24T12:06:52;101464.81;;;27.76;55.18
65557;BME280;52200;53.490;14.376;2023-08-24T12:09:18;101468.63;;;27.62;55.94
65557;BME280;52200;53.490;14.376;2023-08-24T12:11:43;101470.19;;;27.33;56.54
65557;BME280;52200;53.490;14.376;2023-08-24T12:14:16;101457.09;;;27.24;55.77
65557;BME280;52200;53.490;14.376;2023-08-24T12:16:42;101455.03;;;27.17;56.87
65557;BME280;52200;53.490;14.376;2023-08-24T12:19:07;101449.41;;;27.22;55.69
65557;BME280;52200;53.490;14.376;2023-08-24T12:21:33;101442.78;;;27.49;54.55
65557;BME280;52200;53.490;14.376;2023-08-24T12:24:04;101439.22;;;27.70;55.90
65557;BME280;52200;53.490;14.376;2023-08-24T12:26:35;101434.56;;;27.93;57.29
65557;BME280;52200;53.490;14.376;2023-08-24T12:29:03;101445.84;;;28.03;54.92
65557;BME280;52200;53.490;14.376;2023-08-24T12:31:31;101434.00;;;27.99;54.62
65557;BME280;52200;53.490;14.376;2023-08-24T12:34:04;101431.00;;;28.04;53.22
65557;BME280;52200;53.490;14.376;2023-08-24T12:36:35;101415.06;;;27.67;51.33
65557;BME280;52200;53.490;14.376;2023-08-24T12:39:02;101416.97;;;27.56;54.01
65557;BME280;52200;53.490;14.376;2023-08-24T12:41:29;101414.72;;;27.31;55.44
65557;BME280;52200;53.490;14.376;2023-08-24T12:43:55;101414.72;;;27.31;55.83
65557;BME280;52200;53.490;14.376;2023-08-24T12:46:20;101406.19;;;27.29;56.97
65557;BME280;52200;53.490;14.376;2023-08-24T12:48:46;101401.78;;;27.40;56.92
65557;BME280;52200;53.490;14.376;2023-08-24T12:51:11;101399.31;;;27.38;55.31